Time;durP1;ratioP1;P1;durP2;ratioP2;P2;SDS_P1;SDS_P2;PMS_P1;PMS_P2;Temp;Humidity;BMP_temperature;BMP_pressure;BME280_temperature;BME280_humidity;BME280_pressure;Samples;Min_cycle;Max_cycle;Signal;HPM_P1;HPM_P2
2023/02/05 00:00:36;;;;;;;13.07;4.72;;;9.10;99.90;;;;;;5056032;28;20045;-49
2023/02/05 00:03:02;;;;;;;14.70;4.15;;;9.10;99.90;;;;;;5056474;28;20095;-52
2023/02/05 00:05:29;;;;;;;11.95;4.30;;;9.10;99.90;;;;;;5056182;28;20068;-52
2023/02/05 00:07:57;;;;;;;13.80;5.28;;;9.10;99.90;;;;;;5056140;28;20044;-52
2023/02/05 00:10:23;;;;;;;11.70;4.28;;;9.10;99.90;;;;;;5054644;28;20049;-53
2023/02/05 00:12:50;;;;;;;9.68;4.78;;;9.00;99.90;;;;;;5056314;28;20041;-55
2023/02/05 00:15:17;;;;;;;11.60;5.10;;;9.00;99.90;;;;;;5056041;28;20052;-48
2023/02/05 00:17:44;;;;;;;10.73;4.50;;;9.00;99.90;;;;;;5055984;28;20068;-51
2023/02/05 00:20:10;;;;;;;10.02;4.22;;;9.00;99.90;;;;;;5055430;28;20057;-53
2023/02/05 00:22:37;;;;;;;9.70;4.20;;;9.00;99.90;;;;;;5055949;28;20095;-47
2023/02/05 00:25:04;;;;;;;14.00;4.80;;;9.00;99.90;;;;;;5055997;28;20453;-50
2023/02/05 00:27:31;;;;;;;12.02;5.03;;;9.00;99.90;;;;;;5055609;28;20045;-55
2023/02/05 00:29:57;;;;;;;12.55;4.93;;;9.00;99.90;;;;;;5054424;28;20060;-54
2023/02/05 00:32:24;;;;;;;12.55;4.65;;;9.00;99.90;;;;;;5054454;28;20492;-52
2023/02/05 00:34:51;;;;;;;13.63;4.60;;;9.00;99.90;;;;;;5055874;28;20412;-50
2023/02/05 00:37:18;;;;;;;12.13;4.63;;;9.00;99.90;;;;;;5054064;28;20407;-50
2023/02/05 00:39:44;;;;;;;10.18;4.75;;;9.00;99.90;;;;;;5055459;28;20041;-53
2023/02/05 00:42:11;;;;;;;13.13;5.07;;;9.00;99.90;;;;;;5055383;28;20048;-51
2023/02/05 00:44:38;;;;;;;12.90;5.55;;;9.00;99.90;;;;;;5055641;28;20052;-53
2023/02/05 00:47:05;;;;;;;14.35;5.10;;;9.00;99.90;;;;;;5054070;28;20037;-51
2023/02/05 00:49:32;;;;;;;11.10;5.03;;;9.00;99.90;;;;;;5054157;28;20111;-49
2023/02/05 00:51:59;;;;;;;14.52;4.50;;;9.00;99.90;;;;;;5054128;28;20048;-55
2023/02/05 00:54:26;;;;;;;13.02;4.63;;;8.90;99.90;;;;;;5055143;28;20492;-54
2023/02/05 00:56:52;;;;;;;14.25;5.00;;;8.80;99.90;;;;;;5054314;28;20045;-52
2023/02/05 00:59:19;;;;;;;16.50;5.13;;;8.80;99.90;;;;;;5054928;28;20106;-51
2023/02/05 01:01:48;;;;;;;18.38;4.90;;;8.80;99.90;;;;;;5053838;28;20055;-52
2023/02/05 01:04:15;;;;;;;15.18;5.13;;;8.70;99.90;;;;;;5055396;28;20421;-52
2023/02/05 01:06:41;;;;;;;15.95;5.55;;;8.80;99.90;;;;;;5054975;28;20041;-48
2023/02/05 01:09:08;;;;;;;16.10;5.15;;;8.80;99.90;;;;;;5055067;28;20072;-53
2023/02/05 01:11:35;;;;;;;13.90;5.28;;;8.70;99.90;;;;;;5054991;28;20102;-50
2023/02/05 01:14:02;;;;;;;14.20;5.28;;;8.70;99.90;;;;;;5053534;28;20075;-52
2023/02/05 01:16:28;;;;;;;14.23;5.13;;;8.70;99.90;;;;;;5053230;28;20095;-52
2023/02/05 01:18:55;;;;;;;14.88;5.13;;;8.80;99.90;;;;;;5054592;28;20041;-46
2023/02/05 01:21:23;;;;;;;17.10;5.25;;;8.80;99.90;;;;;;5052863;28;20064;-47
2023/02/05 01:23:50;;;;;;;15.93;5.30;;;8.80;99.90;;;;;;5054767;28;20045;-49
2023/02/05 01:26:17;;;;;;;11.63;5.40;;;8.80;99.90;;;;;;5054587;28;20051;-51
2023/02/05 01:28:44;;;;;;;15.55;5.10;;;8.80;99.90;;;;;;5054708;28;20550;-50
2023/02/05 01:31:10;;;;;;;12.23;5.05;;;8.70;99.90;;;;;;5054151;28;20052;-54
2023/02/05 01:33:37;;;;;;;10.57;4.53;;;8.70;99.90;;;;;;5054165;28;20123;-51
2023/02/05 01:36:04;;;;;;;13.98;4.75;;;8.80;99.90;;;;;;5052730;28;20118;-52
2023/02/05 01:38:32;;;;;;;17.90;5.38;;;8.80;99.90;;;;;;5053990;28;20087;-51
2023/02/05 01:40:59;;;;;;;16.90;5.22;;;8.80;99.90;;;;;;5052612;28;20152;-50
2023/02/05 01:43:26;;;;;;;10.77;4.93;;;8.80;99.90;;;;;;5054300;28;20443;-48
2023/02/05 01:45:52;;;;;;;13.10;4.97;;;8.80;99.90;;;;;;5054253;28;20427;-53
2023/02/05 01:48:19;;;;;;;11.60;4.50;;;8.80;99.90;;;;;;5053443;28;20099;-51
2023/02/05 01:50:46;;;;;;;9.75;4.63;;;8.80;99.90;;;;;;5054350;28;20116;-49
2023/02/05 01:53:13;;;;;;;16.48;5.45;;;8.80;99.90;;;;;;5053901;28;20075;-53
2023/02/05 01:55:39;;;;;;;15.07;4.68;;;8.80;99.90;;;;;;5052485;28;20114;-50
2023/02/05 01:58:06;;;;;;;12.85;4.72;;;8.80;99.90;;;;;;5052708;28;20407;-54
2023/02/05 02:00:33;;;;;;;14.38;5.00;;;8.80;99.90;;;;;;5052516;28;20419;-49
2023/02/05 02:03:00;;;;;;;12.45;4.72;;;8.80;99.90;;;;;;5053802;28;20450;-52
2023/02/05 02:05:27;;;;;;;10.38;4.78;;;8.80;99.90;;;;;;5054088;28;20041;-54
2023/02/05 02:07:53;;;;;;;12.40;4.45;;;8.80;99.90;;;;;;5053694;28;20041;-49
2023/02/05 02:10:20;;;;;;;13.40;4.65;;;8.80;99.90;;;;;;5053627;28;20040;-55
2023/02/05 02:12:47;;;;;;;12.10;4.85;;;8.90;99.90;;;;;;5053764;28;20040;-52
2023/02/05 02:15:14;;;;;;;13.70;4.53;;;8.90;99.90;;;;;;5052325;28;20053;-51
2023/02/05 02:17:40;;;;;;;11.23;4.45;;;8.90;99.90;;;;;;5053874;28;20041;-50
2023/02/05 02:20:07;;;;;;;11.35;4.65;;;8.90;99.90;;;;;;5053286;28;20404;-52
2023/02/05 02:22:34;;;;;;;12.15;4.40;;;8.90;99.90;;;;;;5053672;28;20473;-52
2023/02/05 02:25:01;;;;;;;11.27;4.55;;;8.90;99.90;;;;;;5053822;28;20083;-53
2023/02/05 02:27:27;;;;;;;11.00;4.65;;;8.90;99.90;;;;;;5053777;28;20067;-51
2023/02/05 02:29:54;;;;;;;11.73;4.70;;;8.90;99.90;;;;;;5052532;28;20045;-50
2023/02/05 02:32:21;;;;;;;14.05;4.88;;;9.00;99.90;;;;;;5053379;28;20049;-54
2023/02/05 02:34:48;;;;;;;10.32;4.90;;;8.90;99.90;;;;;;5052192;28;20059;-52
2023/02/05 02:37:15;;;;;;;9.73;4.53;;;8.90;99.90;;;;;;5051823;28;20048;-51
2023/02/05 02:39:42;;;;;;;11.57;4.50;;;8.90;99.90;;;;;;5052395;28;20041;-53
2023/02/05 02:42:08;;;;;;;11.43;4.43;;;8.90;99.90;;;;;;5053543;28;20060;-51
2023/02/05 02:44:35;;;;;;;9.73;4.97;;;8.90;99.90;;;;;;5052219;28;20060;-54
2023/02/05 02:47:02;;;;;;;10.10;4.53;;;8.80;99.90;;;;;;5053334;28;20542;-54
2023/02/05 02:49:29;;;;;;;10.13;4.95;;;8.70;99.90;;;;;;5052382;28;20068;-51
2023/02/05 02:51:55;;;;;;;11.38;4.60;;;8.70;99.90;;;;;;5053292;28;20033;-52
2023/02/05 02:54:22;;;;;;;12.85;4.65;;;8.60;99.90;;;;;;5051736;28;20666;-51
2023/02/05 02:56:49;;;;;;;7.85;4.45;;;8.60;99.90;;;;;;5051868;28;20045;-48
2023/02/05 02:59:15;;;;;;;11.23;4.20;;;8.50;99.90;;;;;;5053176;28;20102;-51
2023/02/05 03:01:43;;;;;;;8.60;4.90;;;8.50;99.90;;;;;;5051797;28;20431;-49
2023/02/05 03:04:19;;;;;;;9.77;4.35;;;8.40;99.90;;;;;;5052313;28;20045;-51
2023/02/05 03:06:45;;;;;;;7.40;3.97;;;8.30;99.90;;;;;;5051644;28;20041;-48
2023/02/05 03:09:12;;;;;;;11.80;4.28;;;8.30;99.90;;;;;;5053179;28;20045;-51
2023/02/05 03:11:39;;;;;;;15.57;4.47;;;8.20;99.90;;;;;;5051676;28;20077;-49
2023/02/05 03:14:06;;;;;;;8.95;3.92;;;8.20;99.90;;;;;;5051672;28;20512;-55
2023/02/05 03:16:36;;;;;;;15.30;4.20;;;8.10;99.90;;;;;;5051885;28;20131;-51
2023/02/05 03:19:05;;;;;;;10.77;4.00;;;8.10;99.90;;;;;;5053380;28;20077;-49
2023/02/05 03:21:31;;;;;;;10.50;4.72;;;8.10;99.90;;;;;;5054311;28;20158;-53
2023/02/05 03:23:58;;;;;;;9.07;3.92;;;8.00;99.90;;;;;;5055922;28;20087;-52
2023/02/05 03:26:25;;;;;;;8.85;3.40;;;7.90;99.90;;;;;;5057036;28;20458;-56
2023/02/05 03:28:58;;;;;;;8.93;3.50;;;7.90;99.90;;;;;;5055569;28;20041;-55
2023/02/05 03:31:26;;;;;;;6.32;2.97;;;7.90;99.90;;;;;;5056997;28;20043;-51
2023/02/05 03:33:53;;;;;;;10.05;3.28;;;7.80;99.90;;;;;;5055317;28;20488;-55
2023/02/05 03:36:22;;;;;;;10.57;2.83;;;7.80;99.90;;;;;;5056599;28;20051;-52
2023/02/05 03:38:50;;;;;;;7.70;3.30;;;7.80;99.90;;;;;;5039087;28;20056;-53
2023/02/05 03:41:17;;;;;;;10.93;3.42;;;7.70;99.90;;;;;;5056632;28;20484;-53
2023/02/05 03:43:44;;;;;;;7.20;2.83;;;7.70;99.90;;;;;;5055545;28;20480;-48
2023/02/05 03:46:12;;;;;;;7.20;2.88;;;7.70;99.90;;;;;;5054965;28;20045;-55
2023/02/05 03:48:38;;;;;;;7.65;2.63;;;7.70;99.90;;;;;;5054998;28;20045;-49
2023/02/05 03:51:05;;;;;;;9.82;2.97;;;7.60;99.90;;;;;;5056475;28;20056;-52
2023/02/05 03:53:32;;;;;;;8.82;2.90;;;7.50;99.90;;;;;;5055338;28;20053;-49
2023/02/05 03:55:59;;;;;;;8.00;2.45;;;7.50;99.90;;;;;;5056339;28;20129;-50
2023/02/05 03:58:26;;;;;;;7.30;2.40;;;7.40;99.90;;;;;;5056728;28;20049;-54
2023/02/05 04:00:54;;;;;;;9.55;2.20;;;7.30;99.90;;;;;;5055208;28;20575;-52
2023/02/05 04:03:21;;;;;;;6.32;1.60;;;7.30;99.90;;;;;;5054860;28;20048;-53
2023/02/05 04:05:49;;;;;;;5.20;1.50;;;7.20;99.90;;;;;;5055305;28;20091;-53
2023/02/05 04:08:18;;;;;;;8.35;1.83;;;7.10;99.90;;;;;;5054900;28;20099;-54
2023/02/05 04:10:49;;;;;;;6.72;1.88;;;7.10;99.90;;;;;;5055193;28;20045;-51
2023/02/05 04:13:16;;;;;;;7.15;1.80;;;7.00;99.90;;;;;;5054900;28;20129;-49
2023/02/05 04:15:43;;;;;;;11.32;2.40;;;6.90;99.90;;;;;;5055129;28;20049;-49
2023/02/05 04:18:11;;;;;;;7.32;1.40;;;6.90;99.90;;;;;;5054691;28;20045;-50
2023/02/05 04:20:38;;;;;;;4.93;1.20;;;6.80;99.90;;;;;;5054638;28;20068;-51
2023/02/05 04:23:07;;;;;;;7.35;1.70;;;6.80;99.90;;;;;;5038384;28;20051;-52
2023/02/05 04:25:34;;;;;;;6.07;1.10;;;6.80;99.90;;;;;;5054458;28;20065;-52
2023/02/05 04:28:02;;;;;;;6.40;1.35;;;6.70;99.90;;;;;;5055850;28;20041;-50
2023/02/05 04:30:29;;;;;;;7.93;1.40;;;6.70;99.90;;;;;;5054593;28;20048;-48
2023/02/05 04:32:56;;;;;;;6.47;1.48;;;6.60;99.90;;;;;;5054763;28;20119;-50
2023/02/05 04:35:23;;;;;;;7.43;1.50;;;6.60;99.90;;;;;;5054594;28;20123;-48
2023/02/05 04:37:50;;;;;;;6.22;1.30;;;6.60;99.90;;;;;;5055811;28;20419;-53
2023/02/05 04:40:16;;;;;;;6.65;1.65;;;6.50;99.90;;;;;;5055714;28;20106;-51
2023/02/05 04:42:44;;;;;;;6.20;1.27;;;6.40;99.90;;;;;;5055583;28;20142;-50
2023/02/05 04:45:10;;;;;;;3.35;1.27;;;6.40;99.90;;;;;;5055210;28;20041;-51
2023/02/05 04:47:37;;;;;;;6.50;1.30;;;6.40;99.90;;;;;;5055272;28;20094;-52
2023/02/05 04:50:04;;;;;;;6.07;1.40;;;6.40;99.90;;;;;;5055325;28;20045;-52
2023/02/05 04:52:31;;;;;;;9.15;1.88;;;6.30;99.90;;;;;;5055520;28;20041;-50
2023/02/05 04:54:57;;;;;;;9.27;3.00;;;6.30;99.90;;;;;;5055420;28;20064;-53
2023/02/05 04:57:24;;;;;;;6.78;1.30;;;6.20;99.90;;;;;;5055474;28;20075;-49
2023/02/05 04:59:51;;;;;;;5.90;1.50;;;6.20;99.90;;;;;;5055517;28;20041;-49
2023/02/05 05:02:18;;;;;;;7.60;1.40;;;6.20;99.90;;;;;;5055332;28;20107;-50
2023/02/05 05:04:44;;;;;;;6.68;1.58;;;6.10;99.90;;;;;;5055105;28;20121;-54
2023/02/05 05:07:11;;;;;;;7.97;1.85;;;6.10;99.90;;;;;;5055324;28;20033;-53
2023/02/05 05:09:38;;;;;;;8.93;1.65;;;6.10;99.90;;;;;;5055371;28;20041;-53
2023/02/05 05:12:05;;;;;;;9.75;3.08;;;6.00;99.90;;;;;;5055188;28;20056;-51
2023/02/05 05:14:31;;;;;;;9.57;1.70;;;5.90;99.90;;;;;;5055202;28;20049;-52
2023/02/05 05:16:58;;;;;;;6.88;1.60;;;5.90;99.90;;;;;;5054734;28;20075;-54
2023/02/05 05:19:25;;;;;;;8.63;1.60;;;5.90;99.90;;;;;;5053540;28;20057;-51
2023/02/05 05:21:51;;;;;;;7.68;2.13;;;5.80;99.90;;;;;;5054257;28;20103;-52
2023/02/05 05:24:18;;;;;;;6.28;1.52;;;5.80;99.90;;;;;;5054599;28;20041;-52
2023/02/05 05:26:45;;;;;;;9.35;1.67;;;5.80;99.90;;;;;;5053304;28;20404;-52
2023/02/05 05:29:12;;;;;;;9.32;1.65;;;5.70;99.90;;;;;;5054486;28;20124;-50
2023/02/05 05:31:38;;;;;;;9.23;2.08;;;5.70;99.90;;;;;;5054498;28;20036;-46
2023/02/05 05:34:05;;;;;;;6.85;1.60;;;5.60;99.90;;;;;;5054427;28;20068;-52
2023/02/05 05:36:32;;;;;;;8.63;1.70;;;5.60;99.90;;;;;;5054215;28;20041;-50
2023/02/05 05:43:45;;;;;;;5.22;1.50;;;5.60;99.90;;;;;;5054343;28;20045;-50
2023/02/05 05:44:31;;;;;;;9.53;1.97;;;5.60;99.90;;;;;;5053801;28;20484;-52
2023/02/05 05:46:57;;;;;;;8.68;1.73;;;5.50;99.90;;;;;;5054380;28;20041;-51
2023/02/05 05:49:24;;;;;;;5.70;1.27;;;5.50;99.90;;;;;;5054388;28;20069;-49
2023/02/05 05:51:51;;;;;;;8.05;2.15;;;5.40;99.90;;;;;;5054433;28;20045;-51
2023/02/05 05:54:17;;;;;;;9.70;1.98;;;5.40;99.90;;;;;;5052921;28;20045;-54
2023/02/05 05:56:44;;;;;;;10.48;1.73;;;5.30;99.90;;;;;;5054089;28;20488;-49
2023/02/05 05:59:11;;;;;;;6.35;1.40;;;5.30;99.90;;;;;;5054453;28;20040;-51
2023/02/05 06:01:38;;;;;;;6.97;1.48;;;5.30;99.90;;;;;;5053746;28;20481;-53
2023/02/05 06:04:04;;;;;;;9.05;1.73;;;5.30;99.90;;;;;;5053783;28;20052;-52
2023/02/05 06:06:31;;;;;;;6.38;2.03;;;5.20;99.90;;;;;;5054090;28;20048;-52
2023/02/05 06:08:58;;;;;;;7.22;1.50;;;5.20;99.90;;;;;;5054331;28;20041;-52
2023/02/05 06:11:25;;;;;;;12.18;1.77;;;5.10;99.90;;;;;;5054176;28;20102;-51
2023/02/05 06:13:51;;;;;;;9.70;1.80;;;5.10;99.90;;;;;;5054062;28;20094;-48
2023/02/05 06:16:18;;;;;;;10.85;2.28;;;5.00;99.90;;;;;;5053952;28;20045;-51
2023/02/05 06:18:45;;;;;;;11.75;1.77;;;5.00;99.90;;;;;;5053489;28;20041;-49
2023/02/05 06:21:12;;;;;;;5.57;1.55;;;4.90;99.90;;;;;;5053579;28;20102;-49
2023/02/05 06:23:38;;;;;;;8.77;1.98;;;4.90;99.90;;;;;;5053696;28;20041;-50
2023/02/05 06:26:05;;;;;;;6.55;1.75;;;4.90;99.90;;;;;;5053887;28;20427;-49
2023/02/05 06:28:32;;;;;;;12.00;2.08;;;4.90;99.90;;;;;;5053849;28;20091;-51
2023/02/05 06:30:58;;;;;;;9.80;1.73;;;4.80;99.90;;;;;;5053871;28;20049;-53
2023/02/05 06:33:25;;;;;;;11.48;2.35;;;4.80;99.90;;;;;;5053943;28;20040;-50
2023/02/05 06:35:52;;;;;;;7.43;1.60;;;4.70;99.90;;;;;;5053580;28;20090;-49
2023/02/05 06:38:19;;;;;;;7.75;1.60;;;4.80;99.90;;;;;;5053605;28;20446;-52
2023/02/05 06:40:45;;;;;;;11.55;2.50;;;4.70;99.90;;;;;;5053789;28;20045;-48
2023/02/05 06:43:12;;;;;;;8.93;2.53;;;4.70;99.90;;;;;;5053635;28;20037;-53
2023/02/05 06:45:39;;;;;;;10.82;2.00;;;4.70;99.90;;;;;;5053384;28;20044;-49
2023/02/05 06:48:06;;;;;;;8.05;1.90;;;4.60;99.90;;;;;;5053361;28;20037;-52
2023/02/05 06:50:32;;;;;;;9.45;1.95;;;4.60;99.90;;;;;;5035833;28;20384;-51
2023/02/05 06:52:59;;;;;;;8.57;1.88;;;4.60;99.90;;;;;;5053640;28;20094;-50
2023/02/05 06:55:26;;;;;;;12.90;2.17;;;4.60;99.90;;;;;;5054556;28;20475;-51
2023/02/05 06:57:53;;;;;;;11.75;2.10;;;4.50;99.90;;;;;;5057412;28;20044;-52
2023/02/05 07:00:20;;;;;;;7.97;1.88;;;4.50;99.90;;;;;;5057709;28;20466;-49
2023/02/05 07:02:46;;;;;;;8.07;2.03;;;4.50;99.90;;;;;;5057346;28;20041;-50
2023/02/05 07:05:13;;;;;;;15.75;2.67;;;4.40;99.90;;;;;;5057641;28;20048;-49
2023/02/05 07:07:40;;;;;;;9.10;2.10;;;4.40;99.90;;;;;;5055804;28;20041;-53
2023/02/05 07:10:07;;;;;;;11.70;2.10;;;4.40;99.90;;;;;;5057282;28;20041;-53
2023/02/05 07:12:33;;;;;;;11.00;2.25;;;4.50;99.90;;;;;;5056959;28;20049;-52
2023/02/05 07:15:00;;;;;;;11.48;2.28;;;4.50;99.90;;;;;;5057130;28;20561;-50
2023/02/05 07:17:27;;;;;;;11.88;2.30;;;4.50;99.90;;;;;;5056872;28;20045;-54
2023/02/05 07:19:53;;;;;;;12.25;2.00;;;4.50;99.90;;;;;;5056824;28;20087;-53
2023/02/05 07:22:20;;;;;;;14.15;3.70;;;4.40;99.90;;;;;;5057493;28;20045;-52
2023/02/05 07:24:47;;;;;;;13.77;2.28;;;4.40;99.90;;;;;;5056948;28;20041;-49
2023/02/05 07:27:14;;;;;;;9.45;2.05;;;4.40;99.90;;;;;;5057079;28;20048;-50
2023/02/05 07:29:40;;;;;;;13.73;2.40;;;4.30;99.90;;;;;;5057045;28;20067;-48
2023/02/05 07:32:07;;;;;;;11.70;2.15;;;4.30;99.90;;;;;;5055396;28;20045;-48
2023/02/05 07:34:34;;;;;;;8.63;2.00;;;4.30;99.90;;;;;;5056584;28;20075;-49
2023/02/05 07:37:01;;;;;;;10.55;2.17;;;4.30;99.90;;;;;;5057060;28;20102;-49
2023/02/05 07:39:27;;;;;;;12.15;1.92;;;4.20;99.90;;;;;;5056351;28;20048;-47
2023/02/05 07:41:54;;;;;;;12.20;2.20;;;4.20;99.90;;;;;;5056663;28;20045;-48
2023/02/05 07:44:30;;;;;;;10.55;2.00;;;4.20;99.90;;;;;;5055738;28;20060;-53
2023/02/05 07:46:56;;;;;;;11.40;2.67;;;4.10;99.90;;;;;;5056303;28;20048;-47
2023/02/05 07:49:23;;;;;;;10.95;2.17;;;4.10;99.90;;;;;;5056762;28;20032;-55
2023/02/05 07:51:50;;;;;;;12.85;2.42;;;4.10;99.90;;;;;;5056429;28;20096;-49
2023/02/05 07:54:17;;;;;;;16.77;2.88;;;4.10;99.90;;;;;;5056515;28;20519;-51
2023/02/05 07:56:43;;;;;;;11.52;2.35;;;4.10;99.90;;;;;;5056420;28;20395;-49
2023/02/05 07:59:10;;;;;;;11.48;2.17;;;4.10;99.90;;;;;;5056322;28;20104;-52
2023/02/05 08:01:37;;;;;;;10.50;2.30;;;4.10;99.90;;;;;;5056078;28;20550;-50
2023/02/05 08:04:04;;;;;;;11.93;2.38;;;4.00;99.90;;;;;;5056437;28;20045;-50
2023/02/05 08:06:30;;;;;;;13.63;2.42;;;4.00;99.90;;;;;;5056113;28;20060;-51
2023/02/05 08:08:57;;;;;;;13.25;2.47;;;4.00;99.90;;;;;;5055030;28;20422;-52
2023/02/05 08:11:24;;;;;;;13.27;2.20;;;4.00;99.90;;;;;;5056182;28;20471;-50
2023/02/05 08:13:50;;;;;;;14.43;2.13;;;4.00;99.90;;;;;;5056092;28;20088;-52
2023/02/05 08:16:17;;;;;;;12.77;2.45;;;4.00;99.90;;;;;;5055739;28;20045;-49
2023/02/05 08:18:44;;;;;;;11.23;2.45;;;4.00;99.90;;;;;;5055636;28;20431;-55
2023/02/05 08:21:11;;;;;;;13.77;2.97;;;4.00;99.90;;;;;;5055673;28;20103;-48
2023/02/05 08:23:37;;;;;;;9.73;2.30;;;4.00;99.90;;;;;;5055979;28;20110;-50
2023/02/05 08:26:04;;;;;;;12.90;2.42;;;4.00;99.90;;;;;;5055747;28;20068;-51
2023/02/05 08:28:31;;;;;;;12.20;2.72;;;4.00;99.90;;;;;;5055748;28;20041;-50
2023/02/05 08:30:58;;;;;;;17.73;2.42;;;4.10;99.90;;;;;;5055827;28;20103;-49
2023/02/05 08:33:24;;;;;;;10.80;2.20;;;4.10;99.90;;;;;;5055851;28;20068;-46
2023/02/05 08:35:51;;;;;;;11.32;2.22;;;4.10;99.90;;;;;;5055629;28;20041;-50
2023/02/05 08:38:18;;;;;;;9.90;2.67;;;4.10;99.90;;;;;;5055177;28;20111;-48
2023/02/05 08:40:45;;;;;;;10.55;2.08;;;4.10;99.90;;;;;;5055572;28;20041;-48
2023/02/05 08:43:11;;;;;;;11.38;2.67;;;4.10;99.90;;;;;;5055443;28;20065;-52
2023/02/05 08:45:39;;;;;;;9.80;2.60;;;4.10;99.90;;;;;;5053808;28;20041;-53
2023/02/05 08:48:05;;;;;;;9.20;2.28;;;4.10;99.90;;;;;;5055339;28;20079;-52
2023/02/05 08:50:32;;;;;;;13.32;2.35;;;4.20;99.90;;;;;;5055409;28;20485;-53
2023/02/05 08:52:59;;;;;;;13.35;2.70;;;4.20;99.90;;;;;;5055369;28;20049;-51
2023/02/05 08:55:26;;;;;;;13.68;2.53;;;4.20;99.90;;;;;;5055730;28;20384;-51
2023/02/05 08:57:52;;;;;;;14.02;2.90;;;4.20;99.90;;;;;;5054951;28;20429;-50
2023/02/05 09:00:20;;;;;;;11.05;2.42;;;4.20;99.90;;;;;;5053977;28;20053;-53
2023/02/05 09:02:46;;;;;;;18.92;2.80;;;4.30;99.90;;;;;;5053848;28;20110;-55
2023/02/05 09:05:13;;;;;;;9.93;2.45;;;4.30;99.90;;;;;;5053686;28;20069;-52
2023/02/05 09:07:40;;;;;;;13.23;2.45;;;4.30;99.90;;;;;;5053377;28;20052;-49
2023/02/05 09:10:07;;;;;;;16.00;2.78;;;4.30;99.90;;;;;;5055005;28;20049;-50
2023/02/05 09:12:33;;;;;;;8.60;2.22;;;4.40;99.90;;;;;;5054850;28;20558;-52
2023/02/05 09:15:00;;;;;;;20.20;3.35;;;4.40;99.90;;;;;;5054779;28;20071;-55
2023/02/05 09:17:27;;;;;;;13.90;2.33;;;4.40;99.90;;;;;;5054728;28;20049;-52
2023/02/05 09:19:54;;;;;;;13.18;2.72;;;4.40;99.90;;;;;;5052628;28;20057;-52
2023/02/05 09:22:20;;;;;;;11.07;2.58;;;4.40;99.90;;;;;;5054702;28;20064;-48
2023/02/05 09:24:47;;;;;;;12.73;3.92;;;4.50;99.90;;;;;;5054787;28;20484;-55
2023/02/05 09:27:14;;;;;;;15.15;2.67;;;4.50;99.90;;;;;;5054424;28;20079;-52
2023/02/05 09:29:40;;;;;;;13.13;3.30;;;4.50;99.90;;;;;;5054941;28;20106;-50
2023/02/05 09:32:07;;;;;;;17.70;2.75;;;4.50;99.90;;;;;;5053803;28;20487;-51
2023/02/05 09:34:34;;;;;;;14.30;3.00;;;4.60;99.90;;;;;;5054755;28;20120;-51
2023/02/05 09:37:01;;;;;;;11.55;2.53;;;4.60;99.90;;;;;;5054835;28;20053;-52
2023/02/05 09:39:27;;;;;;;11.77;2.70;;;4.60;99.90;;;;;;5054257;28;20041;-53
2023/02/05 09:42:15;;;;;;;9.52;2.55;;;4.70;99.90;;;;;;5054699;28;20476;-52
2023/02/05 09:44:43;;;;;;;11.90;2.38;;;4.70;99.90;;;;;;5054457;28;20044;-50
2023/02/05 09:47:10;;;;;;;11.88;2.25;;;4.80;99.90;;;;;;5054450;28;20049;-48
2023/02/05 09:49:36;;;;;;;15.98;3.42;;;4.80;99.90;;;;;;5054269;28;20045;-53
2023/02/05 09:52:03;;;;;;;15.25;2.67;;;4.90;99.90;;;;;;5054293;28;20438;-55
2023/02/05 09:54:30;;;;;;;21.80;3.45;;;4.90;99.90;;;;;;5054151;28;20102;-52
2023/02/05 09:56:57;;;;;;;18.30;3.50;;;4.90;99.90;;;;;;5054031;28;20056;-52
2023/02/05 09:59:23;;;;;;;16.27;3.08;;;5.00;99.90;;;;;;5054130;28;20045;-54
2023/02/05 10:01:50;;;;;;;13.23;2.58;;;5.00;99.90;;;;;;5053608;28;20485;-51
2023/02/05 10:04:17;;;;;;;17.00;3.55;;;5.10;99.90;;;;;;5054232;28;20098;-49
2023/02/05 10:06:44;;;;;;;16.35;2.55;;;5.10;99.90;;;;;;5054286;28;20049;-49
2023/02/05 10:09:11;;;;;;;9.63;2.58;;;5.20;99.90;;;;;;5054076;28;20056;-53
2023/02/05 10:11:37;;;;;;;12.15;2.95;;;5.20;99.90;;;;;;5054102;28;20080;-54
2023/02/05 10:14:04;;;;;;;13.15;2.47;;;5.30;99.90;;;;;;5053859;28;20040;-51
2023/02/05 10:16:31;;;;;;;17.58;3.22;;;5.30;99.90;;;;;;5053943;28;20090;-50
2023/02/05 10:18:57;;;;;;;15.63;3.42;;;5.40;99.90;;;;;;5053711;28;20049;-50
2023/02/05 10:21:24;;;;;;;14.55;3.22;;;5.40;99.90;;;;;;5053623;28;20111;-52
2023/02/05 10:23:51;;;;;;;14.95;2.80;;;5.40;99.90;;;;;;5053792;28;20412;-54
2023/02/05 10:26:18;;;;;;;17.30;3.38;;;5.50;99.90;;;;;;5053883;28;20110;-52
2023/02/05 10:28:44;;;;;;;14.95;2.80;;;5.50;99.90;;;;;;5053317;28;20041;-52
2023/02/05 10:31:11;;;;;;;16.75;3.42;;;5.60;99.90;;;;;;5052929;28;20044;-53
2023/02/05 10:33:38;;;;;;;18.67;3.40;;;5.70;99.90;;;;;;5053665;28;20045;-53
2023/02/05 10:36:05;;;;;;;14.60;3.00;;;5.70;99.90;;;;;;5053322;28;20427;-53
2023/02/05 10:38:32;;;;;;;21.63;3.03;;;5.70;99.90;;;;;;5053795;28;20037;-48
2023/02/05 10:40:59;;;;;;;18.20;3.10;;;5.70;99.90;;;;;;5053157;28;20041;-48
2023/02/05 10:43:28;;;;;;;18.55;3.45;;;5.80;99.90;;;;;;5053313;28;20041;-50
2023/02/05 10:45:55;;;;;;;14.57;3.15;;;5.80;99.90;;;;;;5053664;28;20033;-46
2023/02/05 10:48:22;;;;;;;13.55;3.00;;;5.90;99.90;;;;;;5053613;28;20385;-49
2023/02/05 10:50:48;;;;;;;16.50;4.63;;;6.00;99.90;;;;;;5053422;28;20484;-49
2023/02/05 10:53:15;;;;;;;31.35;4.57;;;6.00;99.90;;;;;;5053342;28;20060;-52
2023/02/05 10:55:42;;;;;;;19.17;3.38;;;6.10;99.90;;;;;;5053417;28;20045;-49
2023/02/05 10:58:09;;;;;;;14.93;3.00;;;6.10;99.90;;;;;;5053185;28;20106;-51
2023/02/05 11:00:35;;;;;;;16.05;2.95;;;6.20;99.90;;;;;;5053468;28;20037;-50
2023/02/05 11:03:02;;;;;;;14.60;3.13;;;6.20;99.90;;;;;;5053298;28;20037;-53
2023/02/05 11:05:29;;;;;;;19.30;3.90;;;6.20;99.90;;;;;;5053284;28;20400;-51
2023/02/05 11:07:57;;;;;;;16.98;3.13;;;6.30;99.90;;;;;;5053115;28;20099;-49
2023/02/05 11:10:24;;;;;;;21.83;3.33;;;6.30;99.90;;;;;;5053303;28;20392;-47
2023/02/05 11:12:50;;;;;;;21.25;3.20;;;6.30;99.90;;;;;;5053202;28;20504;-50
2023/02/05 11:15:17;;;;;;;27.42;4.47;;;6.40;99.90;;;;;;5052844;28;20049;-50
2023/02/05 11:17:44;;;;;;;16.85;3.10;;;6.40;99.90;;;;;;5053037;28;20087;-51
2023/02/05 11:20:11;;;;;;;14.27;2.92;;;6.40;99.90;;;;;;5052887;28;20106;-48
2023/02/05 11:22:40;;;;;;;14.40;2.72;;;6.40;99.90;;;;;;5053058;28;20049;-54
2023/02/05 11:25:07;;;;;;;14.07;2.60;;;6.50;99.90;;;;;;5053004;28;20114;-51
2023/02/05 11:27:34;;;;;;;17.15;3.63;;;6.50;99.90;;;;;;5052552;28;20480;-54
2023/02/05 11:30:02;;;;;;;15.00;3.33;;;6.50;99.90;;;;;;5053188;28;20037;-53
2023/02/05 11:32:28;;;;;;;14.82;3.17;;;6.60;99.90;;;;;;5052783;28;20076;-48
2023/02/05 11:34:55;;;;;;;21.33;2.92;;;6.60;99.90;;;;;;5052996;28;20111;-51
2023/02/05 11:37:22;;;;;;;18.42;3.53;;;6.70;99.90;;;;;;5052813;28;20098;-52
2023/02/05 11:39:48;;;;;;;11.82;2.83;;;6.70;99.90;;;;;;5051578;28;20068;-51
2023/02/05 11:42:15;;;;;;;8.80;2.35;;;6.80;99.90;;;;;;5055014;28;20443;-53
2023/02/05 11:44:42;;;;;;;13.13;3.13;;;6.90;99.90;;;;;;5056829;28;20044;-50
2023/02/05 11:47:09;;;;;;;20.00;3.25;;;6.90;99.90;;;;;;5056683;28;20041;-52
2023/02/05 11:49:35;;;;;;;20.17;3.38;;;7.00;99.90;;;;;;5056670;28;20478;-48
2023/02/05 11:52:02;;;;;;;16.60;2.83;;;7.00;99.90;;;;;;5056252;28;20090;-49
2023/02/05 11:54:30;;;;;;;17.42;3.22;;;7.10;99.90;;;;;;5056588;28;20103;-46
2023/02/05 11:56:57;;;;;;;14.18;2.72;;;7.10;99.90;;;;;;5056394;28;20059;-46
2023/02/05 11:59:24;;;;;;;15.55;3.13;;;7.10;99.90;;;;;;5056398;28;20091;-46
2023/02/05 12:01:50;;;;;;;15.02;3.30;;;7.20;99.90;;;;;;5056067;28;20103;-45
2023/02/05 12:04:17;;;;;;;13.02;3.38;;;7.30;99.90;;;;;;5056154;28;20045;-51
2023/02/05 12:06:44;;;;;;;15.00;3.20;;;7.40;99.90;;;;;;5056021;28;20040;-49
2023/02/05 12:09:11;;;;;;;14.30;2.80;;;7.50;99.90;;;;;;5055964;28;20067;-53
2023/02/05 12:14:23;;;;;;;12.55;2.83;;;7.70;99.90;;;;;;5056224;28;20037;-50
2023/02/05 12:16:50;;;;;;;16.75;3.17;;;7.70;99.90;;;;;;5056192;28;20045;-52
2023/02/05 12:19:18;;;;;;;12.43;3.40;;;7.70;99.90;;;;;;5054967;28;20120;-52
2023/02/05 12:21:45;;;;;;;12.52;2.70;;;7.70;99.90;;;;;;5055901;28;20053;-51
2023/02/05 12:24:11;;;;;;;19.85;3.15;;;7.70;99.90;;;;;;5055809;28;20377;-56
2023/02/05 12:26:38;;;;;;;14.00;2.65;;;7.70;99.90;;;;;;5055874;28;20044;-51
2023/02/05 12:29:05;;;;;;;16.60;2.80;;;7.70;99.90;;;;;;5054831;28;20457;-51
2023/02/05 12:31:32;;;;;;;15.65;2.80;;;7.70;99.90;;;;;;5055809;28;20094;-53
2023/02/05 12:33:58;;;;;;;11.77;2.40;;;7.60;99.90;;;;;;5056076;28;20476;-56
2023/02/05 12:36:25;;;;;;;12.73;2.85;;;7.60;99.90;;;;;;5055740;28;20037;-53
2023/02/05 12:38:52;;;;;;;14.70;2.78;;;7.60;99.90;;;;;;5055593;28;20041;-47
2023/02/05 12:41:19;;;;;;;16.05;2.75;;;7.60;99.90;;;;;;5055771;28;20060;-54
2023/02/05 12:43:47;;;;;;;17.27;3.05;;;7.60;99.90;;;;;;5054497;28;20052;-52
2023/02/05 12:46:13;;;;;;;16.55;2.88;;;7.60;99.90;;;;;;5055186;28;20045;-53
2023/02/05 12:48:41;;;;;;;13.73;3.47;;;7.70;99.90;;;;;;5055741;28;20075;-53
2023/02/05 12:51:08;;;;;;;18.42;3.42;;;7.70;99.90;;;;;;5055398;28;20091;-53
2023/02/05 12:53:35;;;;;;;12.23;2.72;;;7.70;99.90;;;;;;5054619;28;20048;-52